Douglas, AZ

9:29 PM MST en Octubre 22, 2014 (GMT -0700)
Bisbee Douglas International | Change Station
CLOSE
Current Station
Aeropuerto
Location: Douglas Bisbee,
Altura: 4104 ft
Estaciones meteorológicas cercanas

Alt 4104 ft 31.47 °N, 109.60 °W | Updated 33 minutes ago

Despejado
Despejado
60 ° F
Sensación térmica 60 ° F
N
6
Viento Variable Viento desde ENE

Hoy
Alta -- | Baja -- ° F
--% Posibilidad de precipitaciones
Ayer
Alta -- | Baja -- ° F
Precip. -- pul
6:26 AM 5:38 PM
Creciente menguante, 1% visible
Presión 29.97 pul
Visibilidad 10.0 Millas
Nubes Despejado
Punto de rocío 46 ° F
Humedad 60%
Precipitaciones 0.00 pul
Espesor de la nieve No disponible.
UV 0 de una escala de 12
Polen 5.30 de una escala de 12
Calidad del aire No disponible.
Flu Activity No Activity
METAR KDUG 230356Z AUTO 06005KT 10SM CLR 16/08 A3011 RMK AO2 SLP147 T01560078

More Conditions Fewer Conditions

Presión 29.97 pul
Visibilidad 10.0 Millas
Nubes Despejado
Punto de rocío 46 ° F
Humedad 60%
Precipitaciones 0.00 pul
Espesor de la nieve No disponible.
UV 0 de una escala de 12
Polen 5.30 de una escala de 12
Calidad del aire No disponible.
Flu Activity No Activity
METAR KDUG 230356Z AUTO 06005KT 10SM CLR 16/08 A3011 RMK AO2 SLP147 T01560078

More Conditions Fewer Conditions

10-Day Weather Forecast

Almanac

Astronomía

Oct. 22, 2014 Salida Puesta
Hora real 6:26 AM MST 5:38 PM MST
Crepúsculo civil 6:01 AM MST 6:03 PM MST
Crepúsculo náutico 5:33 AM MST 6:31 PM MST
Crepúsculo astronómico 5:04 AM MST 6:59 PM MST
Luna 5:15 AM MST (10/22) 5:04 PM MST (10/22)
Horas de luz 12h 01m
Horas de luz
11h 12m
Tomorrow will be 1m 45s shorter.
Creciente menguante, 1% of the Moon is Illuminated
Oct 23
Creciente menguante
Oct 23
Nueva
Oct 30
Cuarto creciente
Nov 6
Luna llena
Nov 14
Cuarto menguante

Extremos de ayer

Máximos del estado Bajos del estado

Community

WunderPhotos

Upload Photos

1,764,150 ¡fotos cargadas!

Nearby

Grosos de nieve

Estación Profundido Altura
Hannagan Meadows 1 in 9020 ft
Beaver Head 1 in 7990 ft
Wildcat 0 in 7850 ft
Coronado Trail 0 in 8400 ft
Maverick Fork 1 in 9200 ft

Actividad de terremotos

Ciudad Distance Mag. Tiempo y dato
No hay informes recientes de la actividad sísmica.
Magnitud mínima muestra es 2,5.

Temperaturas de aguas costeras

Lugar Temperatura
Sin partes meteorológicos de las estaciones

Estaciones meteorológicas cercanas